Time;durP1;ratioP1;P1;durP2;ratioP2;P2;SDS_P1;SDS_P2;PMS_P1;PMS_P2;Temp;Humidity;BMP_temperature;BMP_pressure;BME280_temperature;BME280_humidity;BME280_pressure;Samples;Min_cycle;Max_cycle;Signal;HPM_P1;HPM_P2
2022/02/20 00:01:22;;;;;;;1.23;1.13;;;15.00;63.40;;;;;;4189862;28;20052;-62
2022/02/20 00:03:44;;;;;;;1.80;1.00;;;15.00;63.20;;;;;;4194770;28;20055;-61
2022/02/20 00:06:10;;;;;;;1.17;0.98;;;15.00;63.60;;;;;;4194895;28;20056;-61
2022/02/20 00:08:34;;;;;;;1.00;1.00;;;15.00;64.70;;;;;;4212583;28;20105;-62
2022/02/20 00:10:57;;;;;;;1.35;0.80;;;15.00;64.70;;;;;;4224882;27;20047;-62
2022/02/20 00:13:19;;;;;;;0.90;0.90;;;14.90;63.90;;;;;;4211681;28;20048;-62
2022/02/20 00:15:41;;;;;;;2.08;1.20;;;14.90;64.10;;;;;;4211423;28;20071;-62
2022/02/20 00:18:05;;;;;;;0.80;0.80;;;14.90;64.10;;;;;;4211128;28;20130;-62
2022/02/20 00:20:30;;;;;;;0.90;0.90;;;14.90;64.30;;;;;;4210989;28;20124;-62
2022/02/20 00:22:52;;;;;;;1.80;1.10;;;14.90;64.30;;;;;;4211372;28;20052;-63
2022/02/20 00:25:16;;;;;;;0.90;0.90;;;14.90;64.30;;;;;;4210130;28;20048;-62
2022/02/20 00:27:41;;;;;;;1.00;1.00;;;14.90;64.30;;;;;;4193611;28;20044;-63
2022/02/20 00:30:05;;;;;;;1.17;1.00;;;14.90;64.40;;;;;;4194567;28;20101;-63
2022/02/20 00:32:28;;;;;;;0.98;0.70;;;14.90;64.50;;;;;;4194791;28;20499;-63
2022/02/20 00:34:50;;;;;;;0.90;0.90;;;14.90;64.60;;;;;;4200447;28;20048;-63
2022/02/20 00:37:12;;;;;;;1.20;1.10;;;14.90;64.60;;;;;;4208338;28;20119;-63
2022/02/20 00:39:35;;;;;;;1.30;1.20;;;14.90;64.60;;;;;;4211036;28;20097;-62
2022/02/20 00:41:59;;;;;;;1.10;1.10;;;14.80;65.10;;;;;;4217611;27;20128;-63
2022/02/20 00:44:24;;;;;;;1.48;1.38;;;14.90;65.60;;;;;;4227782;27;20090;-63
2022/02/20 00:46:46;;;;;;;1.20;1.20;;;14.90;65.60;;;;;;4211029;28;20143;-63
2022/02/20 00:49:08;;;;;;;1.27;1.20;;;15.00;65.40;;;;;;4201772;28;20048;-63
2022/02/20 00:51:31;;;;;;;1.40;1.30;;;15.00;65.10;;;;;;4192804;28;20514;-64
2022/02/20 00:53:53;;;;;;;1.20;1.10;;;15.00;65.00;;;;;;4209499;28;20040;-63
2022/02/20 00:56:15;;;;;;;1.05;1.05;;;15.10;64.70;;;;;;4208802;28;20044;-62
2022/02/20 00:58:41;;;;;;;1.00;1.00;;;15.10;64.60;;;;;;4214102;28;20047;-62
2022/02/20 01:01:04;;;;;;;1.13;1.13;;;15.10;64.60;;;;;;4219250;27;20457;-63
2022/02/20 01:03:26;;;;;;;1.30;1.30;;;15.20;64.60;;;;;;4220806;28;20043;-62
2022/02/20 01:05:51;;;;;;;1.38;1.38;;;15.20;64.10;;;;;;4209317;28;20043;-62
2022/02/20 01:08:14;;;;;;;2.45;1.20;;;15.20;63.80;;;;;;4209385;28;20044;-62
2022/02/20 01:10:37;;;;;;;3.33;1.23;;;15.10;64.20;;;;;;4210414;28;20048;-62
2022/02/20 01:13:01;;;;;;;2.55;1.00;;;15.20;63.80;;;;;;4209056;28;20511;-62
2022/02/20 01:15:24;;;;;;;1.10;0.98;;;15.10;63.90;;;;;;4207877;28;20056;-63
2022/02/20 01:17:46;;;;;;;1.00;1.00;;;15.10;64.00;;;;;;4229953;27;20051;-62
2022/02/20 01:20:10;;;;;;;1.00;1.00;;;15.10;64.10;;;;;;4208750;28;20109;-63
2022/02/20 01:22:32;;;;;;;0.70;0.70;;;15.10;64.10;;;;;;4193861;28;20048;-62
2022/02/20 01:24:55;;;;;;;0.80;0.80;;;15.10;64.20;;;;;;4193557;28;20066;-63
2022/02/20 01:27:18;;;;;;;1.38;1.25;;;15.10;64.20;;;;;;4192083;28;20582;-62
2022/02/20 01:29:41;;;;;;;1.25;1.17;;;15.10;64.10;;;;;;4192177;28;20045;-62
2022/02/20 01:32:06;;;;;;;1.35;1.02;;;15.10;64.60;;;;;;4195448;28;20135;-63
2022/02/20 01:34:28;;;;;;;1.60;1.13;;;15.10;64.70;;;;;;4192091;28;20143;-62
2022/02/20 01:36:50;;;;;;;1.23;1.20;;;15.10;64.80;;;;;;4192008;28;20055;-63
2022/02/20 01:39:15;;;;;;;0.98;0.98;;;15.20;64.90;;;;;;4191856;28;20150;-63
2022/02/20 01:41:38;;;;;;;1.40;1.33;;;15.20;64.80;;;;;;4192018;28;20127;-63
2022/02/20 01:44:00;;;;;;;1.92;1.00;;;15.20;64.90;;;;;;4192125;28;20135;-61
2022/02/20 01:46:22;;;;;;;0.93;0.93;;;15.20;64.80;;;;;;4201495;28;20135;-63
2022/02/20 01:48:46;;;;;;;1.83;0.98;;;15.20;64.80;;;;;;4207878;28;20056;-63
2022/02/20 01:51:08;;;;;;;1.95;1.10;;;15.20;64.90;;;;;;4225207;28;20442;-63
2022/02/20 01:53:33;;;;;;;1.10;1.10;;;15.20;64.90;;;;;;4225540;28;20047;-63
2022/02/20 01:55:55;;;;;;;1.35;1.10;;;15.20;65.00;;;;;;4225100;28;20039;-63
2022/02/20 01:58:17;;;;;;;2.20;1.35;;;15.30;65.80;;;;;;4226461;28;20066;-63
2022/02/20 02:01:00;;;;;;;1.55;1.25;;;15.30;64.70;;;;;;4217379;28;20123;-63
2022/02/20 02:03:43;;;;;;;2.38;1.38;;;15.40;64.60;;;;;;4209211;28;20166;-63
2022/02/20 02:06:21;;;;;;;1.88;1.00;;;15.40;64.50;;;;;;4191882;28;20107;-63
2022/02/20 02:08:47;;;;;;;1.10;1.10;;;15.40;64.30;;;;;;4195276;28;20152;-64
2022/02/20 02:11:38;;;;;;;1.20;1.10;;;15.50;64.30;;;;;;4206890;28;20400;-63
2022/02/20 02:14:16;;;;;;;1.05;0.93;;;15.40;64.40;;;;;;4211780;28;20282;-63
2022/02/20 02:16:58;;;;;;;1.10;1.10;;;15.40;64.40;;;;;;4224240;28;20051;-64
2022/02/20 02:19:28;;;;;;;;;;;15.40;64.40;;;;;;4224193;28;20143;-63
2022/02/20 02:22:04;;;;;;;1.40;0.85;;;15.40;64.40;;;;;;4205455;28;19920;-64
2022/02/20 02:24:39;;;;;;;1.13;1.13;;;15.30;64.60;;;;;;4190880;28;20049;-63
2022/02/20 02:27:21;;;;;;;2.93;1.40;;;15.40;64.60;;;;;;4192759;28;20044;-63
2022/02/20 02:30:10;;;;;;;1.40;1.30;;;15.30;64.70;;;;;;4192537;28;20516;-62
2022/02/20 02:32:33;;;;;;;1.17;1.17;;;15.30;64.70;;;;;;4207223;28;20047;-63
2022/02/20 02:34:55;;;;;;;1.00;1.00;;;15.30;64.80;;;;;;4209565;28;20117;-63
2022/02/20 02:37:22;;;;;;;1.33;1.33;;;15.30;64.70;;;;;;4206688;28;20079;-62
2022/02/20 02:39:45;;;;;;;1.00;1.00;;;15.30;64.60;;;;;;4191259;28;20076;-63
2022/02/20 02:42:10;;;;;;;0.80;0.80;;;15.30;64.70;;;;;;4191334;28;20058;-63
2022/02/20 02:44:32;;;;;;;1.13;1.08;;;15.30;65.00;;;;;;4205548;28;20043;-63
2022/02/20 02:46:55;;;;;;;1.02;0.95;;;15.40;65.50;;;;;;4205141;28;20043;-63
2022/02/20 02:49:17;;;;;;;0.60;0.60;;;15.40;64.90;;;;;;4224592;28;20064;-63
2022/02/20 02:51:40;;;;;;;0.80;0.80;;;15.50;64.60;;;;;;4226091;28;20233;-63
2022/02/20 02:54:08;;;;;;;1.05;0.90;;;15.50;64.40;;;;;;4222941;28;20071;-63
2022/02/20 02:56:34;;;;;;;1.05;0.88;;;15.50;64.20;;;;;;4224295;28;20103;-63
2022/02/20 02:58:56;;;;;;;1.27;0.82;;;15.60;64.20;;;;;;4224340;28;20104;-63
2022/02/20 03:01:18;;;;;;;0.90;0.90;;;15.60;64.20;;;;;;4227630;28;20052;-62
2022/02/20 03:03:41;;;;;;;0.90;0.90;;;15.60;64.20;;;;;;4229483;28;20040;-63
2022/02/20 03:06:08;;;;;;;2.58;0.98;;;15.60;65.10;;;;;;4229185;27;20036;-62
2022/02/20 03:08:30;;;;;;;1.42;1.10;;;15.60;64.20;;;;;;4228156;28;20086;-62
2022/02/20 03:10:54;;;;;;;0.82;0.82;;;15.50;64.20;;;;;;4227999;27;20048;-64
2022/02/20 03:13:16;;;;;;;0.88;0.88;;;15.50;65.10;;;;;;4229445;27;20420;-63
2022/02/20 03:15:41;;;;;;;1.00;1.00;;;15.50;64.40;;;;;;4216698;28;20612;-63
2022/02/20 03:18:04;;;;;;;2.08;1.13;;;15.50;64.50;;;;;;4194144;28;20131;-63
2022/02/20 03:20:26;;;;;;;1.15;1.15;;;15.50;64.40;;;;;;4222769;28;20047;-64
2022/02/20 03:22:49;;;;;;;1.27;1.27;;;15.50;64.40;;;;;;4193590;28;20051;-63
2022/02/20 03:25:11;;;;;;;0.95;0.95;;;15.50;64.50;;;;;;4178685;28;20057;-63
2022/02/20 03:27:37;;;;;;;1.38;1.27;;;15.50;64.30;;;;;;4209978;28;20047;-62
2022/02/20 03:30:06;;;;;;;1.20;1.10;;;15.50;64.40;;;;;;4204270;28;20090;-63
2022/02/20 03:32:30;;;;;;;1.20;1.20;;;15.50;64.50;;;;;;4193955;28;20048;-63
2022/02/20 03:34:52;;;;;;;1.08;1.08;;;15.50;64.60;;;;;;4191372;28;20044;-63
2022/02/20 03:37:16;;;;;;;0.82;0.82;;;15.40;64.70;;;;;;4177321;28;20431;-63
2022/02/20 03:39:38;;;;;;;1.48;1.20;;;15.50;64.90;;;;;;4177072;28;20057;-63
2022/02/20 03:42:02;;;;;;;0.93;0.93;;;15.50;64.80;;;;;;4183665;28;20040;-63
2022/02/20 03:44:45;;;;;;;1.20;1.20;;;15.60;64.80;;;;;;4207328;28;20071;-63
2022/02/20 03:47:11;;;;;;;1.30;1.20;;;15.60;64.50;;;;;;4210189;28;20048;-63
2022/02/20 03:49:33;;;;;;;1.40;1.30;;;15.70;64.30;;;;;;4227246;28;20514;-63
2022/02/20 03:52:10;;;;;;;1.05;1.05;;;15.70;64.30;;;;;;4227216;28;20040;-64
2022/02/20 03:54:39;;;;;;;1.20;1.10;;;15.70;64.10;;;;;;4227044;28;20112;-62
2022/02/20 03:57:02;;;;;;;1.20;1.10;;;15.70;64.20;;;;;;4228993;28;20048;-62
2022/02/20 03:59:49;;;;;;;1.10;1.10;;;15.70;64.10;;;;;;4218149;28;20052;-63
2022/02/20 04:02:11;;;;;;;1.77;1.35;;;15.70;64.10;;;;;;4226568;28;20521;-63
2022/02/20 04:04:34;;;;;;;2.88;1.20;;;15.70;64.00;;;;;;4227088;28;20128;-62
2022/02/20 04:06:56;;;;;;;1.40;1.30;;;15.70;64.10;;;;;;4228282;27;20058;-63
2022/02/20 04:09:18;;;;;;;1.10;1.10;;;15.70;64.10;;;;;;4219721;28;20052;-61
2022/02/20 04:11:41;;;;;;;1.08;1.08;;;15.70;64.10;;;;;;4206336;28;20067;-62
2022/02/20 04:14:18;;;;;;;1.13;1.13;;;15.70;64.10;;;;;;4202930;28;20044;-62
2022/02/20 04:16:54;;;;;;;1.20;1.10;;;15.60;64.30;;;;;;4208586;28;20059;-62
2022/02/20 04:19:16;;;;;;;1.20;1.20;;;15.60;64.60;;;;;;4180439;28;20052;-63
2022/02/20 04:21:41;;;;;;;1.38;1.27;;;15.60;64.60;;;;;;4192391;28;20144;-62
2022/02/20 04:24:09;;;;;;;2.25;1.20;;;15.60;64.50;;;;;;4192688;28;20056;-62
2022/02/20 04:26:31;;;;;;;1.17;1.10;;;15.70;64.50;;;;;;4209669;28;20105;-63
2022/02/20 04:28:54;;;;;;;1.42;1.20;;;15.70;64.30;;;;;;4211255;28;20130;-63
2022/02/20 04:31:17;;;;;;;1.48;1.08;;;15.70;64.10;;;;;;4209558;28;20567;-63
2022/02/20 04:33:46;;;;;;;1.10;1.10;;;15.80;63.90;;;;;;4193724;28;20152;-63
2022/02/20 04:36:08;;;;;;;1.50;1.40;;;15.70;63.80;;;;;;4198612;28;20083;-64
2022/02/20 04:38:30;;;;;;;1.85;1.75;;;15.70;63.80;;;;;;4216167;28;20073;-64
2022/02/20 04:40:58;;;;;;;4.07;2.10;;;15.80;63.80;;;;;;4214269;28;20044;-64
2022/02/20 04:43:25;;;;;;;1.63;1.45;;;15.80;63.70;;;;;;4214416;28;20060;-62
2022/02/20 04:45:51;;;;;;;2.92;1.50;;;15.80;64.50;;;;;;4214505;28;20052;-62
2022/02/20 04:48:16;;;;;;;1.35;1.23;;;15.80;63.70;;;;;;4213037;28;20086;-62
2022/02/20 04:50:40;;;;;;;1.40;1.30;;;15.90;63.70;;;;;;4197190;28;20447;-62
2022/02/20 04:53:08;;;;;;;1.23;1.20;;;15.90;63.60;;;;;;4199816;28;20059;-63
2022/02/20 04:55:31;;;;;;;1.50;1.40;;;15.90;63.40;;;;;;4197557;28;20147;-63
2022/02/20 04:57:54;;;;;;;1.30;1.30;;;15.90;63.30;;;;;;4220616;28;20051;-63
2022/02/20 05:00:19;;;;;;;1.65;1.00;;;16.00;63.10;;;;;;4231019;28;20534;-63
2022/02/20 05:03:06;;;;;;;1.38;1.27;;;16.00;62.90;;;;;;4232243;28;20059;-63
2022/02/20 05:05:48;;;;;;;1.95;1.13;;;16.00;63.10;;;;;;4230056;28;20747;-62
2022/02/20 05:08:17;;;;;;;2.22;1.20;;;16.00;63.10;;;;;;4219153;28;20054;-63
2022/02/20 05:10:40;;;;;;;2.45;1.50;;;16.00;63.10;;;;;;4214156;28;20051;-62
2022/02/20 05:13:05;;;;;;;0.98;0.98;;;16.00;63.10;;;;;;4214140;28;20585;-64
2022/02/20 05:15:28;;;;;;;2.70;1.17;;;15.90;63.00;;;;;;4215196;28;20056;-64
2022/02/20 05:17:53;;;;;;;2.97;1.33;;;15.90;62.90;;;;;;4222927;28;20372;-63
2022/02/20 05:20:16;;;;;;;2.78;1.10;;;16.00;63.20;;;;;;4230198;28;20040;-63
2022/02/20 05:22:40;;;;;;;1.55;1.10;;;16.00;62.90;;;;;;4221502;28;20055;-63
2022/02/20 05:25:08;;;;;;;1.67;1.10;;;16.10;62.50;;;;;;4213888;28;20058;-64
2022/02/20 05:27:31;;;;;;;3.80;1.30;;;16.20;62.30;;;;;;4213885;28;20168;-63
2022/02/20 05:29:53;;;;;;;2.55;0.98;;;16.20;62.00;;;;;;4213900;28;20435;-63
2022/02/20 05:32:23;;;;;;;1.30;1.20;;;16.30;61.90;;;;;;4226680;28;20058;-63
2022/02/20 05:35:12;;;;;;;0.90;0.85;;;16.30;61.80;;;;;;4231124;28;20106;-63
2022/02/20 05:37:42;;;;;;;2.00;1.25;;;16.30;61.90;;;;;;4214910;28;20411;-63
2022/02/20 05:40:06;;;;;;;1.10;0.98;;;16.20;61.90;;;;;;4230501;28;20051;-63
2022/02/20 05:42:29;;;;;;;2.13;1.20;;;16.20;62.00;;;;;;4216104;28;20052;-63
2022/02/20 05:44:57;;;;;;;1.65;1.17;;;16.20;62.10;;;;;;4230477;28;20062;-63
2022/02/20 05:47:20;;;;;;;0.98;0.98;;;16.10;62.10;;;;;;4226021;28;20074;-63
2022/02/20 05:49:45;;;;;;;1.45;0.93;;;16.10;62.30;;;;;;4213077;28;20460;-63
2022/02/20 05:52:08;;;;;;;2.20;1.27;;;16.10;62.40;;;;;;4227467;28;20482;-64
2022/02/20 05:54:38;;;;;;;1.65;1.10;;;16.10;62.30;;;;;;4231272;28;20403;-63
2022/02/20 05:57:02;;;;;;;1.13;1.00;;;16.10;62.30;;;;;;4223775;28;20055;-62
2022/02/20 05:59:26;;;;;;;1.27;1.17;;;16.00;62.30;;;;;;4217079;28;20048;-62
2022/02/20 06:01:50;;;;;;;1.85;1.10;;;16.00;62.30;;;;;;4215063;28;20079;-63
2022/02/20 06:04:12;;;;;;;1.35;1.10;;;16.00;62.50;;;;;;4228421;28;20047;-63
2022/02/20 06:06:35;;;;;;;1.23;1.10;;;15.90;62.50;;;;;;4230977;28;20052;-63
2022/02/20 06:09:13;;;;;;;1.55;1.20;;;15.90;62.50;;;;;;4229215;28;20051;-63
2022/02/20 06:11:42;;;;;;;2.00;0.90;;;16.00;62.50;;;;;;4230054;28;20062;-64
2022/02/20 06:14:30;;;;;;;3.10;0.98;;;16.00;62.50;;;;;;4220258;28;20055;-65
2022/02/20 06:17:13;;;;;;;1.35;1.15;;;16.00;62.30;;;;;;4223895;28;20055;-62
2022/02/20 06:19:42;;;;;;;2.13;1.00;;;16.10;62.20;;;;;;4229424;28;20653;-64
2022/02/20 06:22:23;;;;;;;1.75;1.35;;;16.10;62.00;;;;;;4197310;28;20060;-64
2022/02/20 06:25:23;;;;;;;1.35;1.00;;;16.10;61.90;;;;;;4178006;28;20148;-63
2022/02/20 06:28:01;;;;;;;1.10;1.10;;;16.10;61.80;;;;;;4178810;28;20060;-63
2022/02/20 06:30:25;;;;;;;3.55;1.30;;;16.10;61.80;;;;;;4175173;28;20087;-63
2022/02/20 06:32:48;;;;;;;3.25;1.23;;;16.00;61.90;;;;;;4188999;28;20567;-63
2022/02/20 06:35:10;;;;;;;1.50;0.90;;;16.00;62.10;;;;;;4191987;28;20508;-62
2022/02/20 06:37:34;;;;;;;3.08;1.00;;;16.10;62.10;;;;;;4180336;28;20056;-62
2022/02/20 06:39:56;;;;;;;2.03;0.93;;;16.10;61.80;;;;;;4178881;28;20155;-62
2022/02/20 06:42:18;;;;;;;3.33;1.83;;;16.10;61.70;;;;;;4179522;28;20053;-63
2022/02/20 06:44:45;;;;;;;3.00;1.10;;;16.10;61.60;;;;;;4186023;28;20056;-62
2022/02/20 06:47:25;;;;;;;1.67;1.10;;;16.00;61.60;;;;;;4197084;28;20107;-62
2022/02/20 06:50:06;;;;;;;1.40;0.98;;;16.00;61.70;;;;;;4162991;28;20053;-62
2022/02/20 06:52:54;;;;;;;4.20;1.17;;;16.00;61.70;;;;;;4163993;28;20057;-63
2022/02/20 06:55:39;;;;;;;1.70;1.00;;;16.00;61.80;;;;;;4163289;28;20091;-64
2022/02/20 06:58:02;;;;;;;1.73;1.13;;;16.00;61.80;;;;;;4167683;28;20184;-63
2022/02/20 07:00:26;;;;;;;1.40;1.30;;;16.00;62.00;;;;;;4195500;28;20471;-62
2022/02/20 07:02:49;;;;;;;1.42;0.77;;;16.00;61.70;;;;;;4195036;28;20103;-63
2022/02/20 07:05:11;;;;;;;1.02;0.90;;;16.10;61.60;;;;;;4184196;28;20528;-63
2022/02/20 07:07:33;;;;;;;1.55;1.00;;;16.10;61.40;;;;;;4180277;28;20065;-62
2022/02/20 07:09:55;;;;;;;2.17;1.00;;;16.10;61.40;;;;;;4184139;28;20515;-64
2022/02/20 07:12:17;;;;;;;1.02;0.88;;;16.10;61.00;;;;;;4179613;28;20385;-66
2022/02/20 07:14:39;;;;;;;1.70;1.10;;;16.10;61.30;;;;;;4180371;28;20049;-63
2022/02/20 07:17:04;;;;;;;0.70;0.70;;;16.10;62.00;;;;;;4180207;28;20049;-62
2022/02/20 07:19:26;;;;;;;2.38;0.90;;;16.10;62.00;;;;;;4194549;28;20048;-62
2022/02/20 07:21:48;;;;;;;2.03;0.93;;;16.10;61.60;;;;;;4198214;28;20460;-63
2022/02/20 07:24:11;;;;;;;3.17;1.00;;;16.00;61.50;;;;;;4213075;28;20064;-64
2022/02/20 07:26:33;;;;;;;2.10;1.10;;;16.00;62.10;;;;;;4213136;28;20060;-64
2022/02/20 07:28:56;;;;;;;3.20;1.75;;;16.00;62.30;;;;;;4214044;28;20059;-63
2022/02/20 07:31:18;;;;;;;1.08;0.80;;;16.00;62.30;;;;;;4215746;28;20048;-63
2022/02/20 07:33:42;;;;;;;1.48;0.90;;;16.00;62.00;;;;;;4223690;28;20504;-64
2022/02/20 07:36:05;;;;;;;3.20;0.90;;;16.00;62.00;;;;;;4213310;28;20488;-64
2022/02/20 07:38:27;;;;;;;2.22;1.02;;;16.00;61.80;;;;;;4213317;28;20052;-63
2022/02/20 07:40:49;;;;;;;0.95;0.88;;;16.00;62.30;;;;;;4225984;28;20066;-63
2022/02/20 07:43:12;;;;;;;1.27;0.95;;;16.00;62.20;;;;;;4228739;28;20520;-64
2022/02/20 07:45:34;;;;;;;1.92;1.20;;;16.00;62.60;;;;;;4217545;28;20524;-63
2022/02/20 07:47:59;;;;;;;1.65;1.30;;;16.00;62.60;;;;;;4204663;28;20055;-63
2022/02/20 07:50:24;;;;;;;2.80;1.17;;;16.10;62.40;;;;;;4228996;28;20052;-61
2022/02/20 07:52:46;;;;;;;2.70;1.40;;;16.20;62.10;;;;;;4213812;28;20090;-62
2022/02/20 07:55:10;;;;;;;1.45;1.20;;;16.20;61.70;;;;;;4214030;28;20058;-63
2022/02/20 07:57:32;;;;;;;2.45;1.40;;;16.30;61.30;;;;;;4213330;28;20052;-62
2022/02/20 07:59:54;;;;;;;2.63;1.80;;;16.20;61.30;;;;;;4213783;28;20071;-64
2022/02/20 08:02:16;;;;;;;2.45;1.38;;;16.20;61.70;;;;;;4212664;28;20052;-63
2022/02/20 08:04:38;;;;;;;1.05;1.05;;;16.20;61.70;;;;;;4214027;28;20066;-63
2022/02/20 08:07:04;;;;;;;1.77;1.33;;;16.10;61.80;;;;;;4213426;28;20082;-63
2022/02/20 08:09:26;;;;;;;2.28;1.17;;;16.00;61.90;;;;;;4213834;28;20121;-63
2022/02/20 08:11:48;;;;;;;2.38;1.40;;;16.00;62.10;;;;;;4213554;28;20552;-63
2022/02/20 08:14:11;;;;;;;1.88;1.67;;;16.00;62.30;;;;;;4211741;28;20098;-63
2022/02/20 08:16:33;;;;;;;1.75;1.30;;;16.00;62.30;;;;;;4213169;28;20062;-64
2022/02/20 08:18:56;;;;;;;2.60;1.55;;;16.00;62.80;;;;;;4213926;28;20079;-64
2022/02/20 08:21:18;;;;;;;1.85;1.50;;;16.00;62.50;;;;;;4213114;28;20151;-64
2022/02/20 08:23:41;;;;;;;2.13;1.90;;;16.00;62.40;;;;;;4213886;28;20072;-63
2022/02/20 08:26:05;;;;;;;2.25;1.83;;;16.00;62.20;;;;;;4213231;28;20435;-62
2022/02/20 08:28:27;;;;;;;1.73;1.63;;;16.00;62.30;;;;;;4212382;28;20052;-63
2022/02/20 08:30:49;;;;;;;1.27;1.27;;;16.00;62.50;;;;;;4212328;28;20051;-63
2022/02/20 08:33:11;;;;;;;5.20;1.70;;;16.00;63.20;;;;;;4213656;28;20044;-63
2022/02/20 08:35:34;;;;;;;2.65;1.90;;;15.90;62.40;;;;;;4213153;28;20644;-63
2022/02/20 08:37:56;;;;;;;2.03;1.77;;;15.90;62.80;;;;;;4212929;28;20545;-63
2022/02/20 08:40:20;;;;;;;1.50;1.40;;;15.90;63.10;;;;;;4213193;28;20143;-62
2022/02/20 08:42:42;;;;;;;1.45;1.35;;;15.90;63.20;;;;;;4213205;28;20113;-62
2022/02/20 08:45:06;;;;;;;1.98;1.88;;;15.90;63.10;;;;;;4211420;28;20509;-63
2022/02/20 08:47:29;;;;;;;2.10;1.88;;;15.90;63.20;;;;;;4213077;28;20448;-62
2022/02/20 08:49:52;;;;;;;1.60;1.48;;;15.90;63.10;;;;;;4209665;28;20052;-62
2022/02/20 08:52:14;;;;;;;1.48;1.25;;;16.00;63.30;;;;;;4204434;28;20749;-62
2022/02/20 08:54:37;;;;;;;2.50;1.83;;;15.90;63.30;;;;;;4207476;28;20132;-62
2022/02/20 08:57:02;;;;;;;1.73;1.63;;;15.90;63.40;;;;;;4207515;28;20051;-62
2022/02/20 08:59:25;;;;;;;3.67;1.50;;;15.90;63.60;;;;;;4208143;28;20150;-62
2022/02/20 09:01:47;;;;;;;4.30;2.10;;;15.90;63.80;;;;;;4208503;28;20052;-61
2022/02/20 09:04:12;;;;;;;2.33;2.08;;;15.90;63.70;;;;;;4208455;28;20047;-62
2022/02/20 09:06:35;;;;;;;1.80;1.70;;;15.90;63.50;;;;;;4207803;28;20381;-62
2022/02/20 09:08:58;;;;;;;1.52;1.42;;;16.00;63.40;;;;;;4207885;28;20067;-62
2022/02/20 09:11:21;;;;;;;2.85;2.00;;;15.90;63.30;;;;;;4220558;28;20089;-62
2022/02/20 09:13:44;;;;;;;1.10;1.00;;;15.90;63.50;;;;;;4206102;28;20056;-62
2022/02/20 09:16:07;;;;;;;1.88;1.38;;;15.90;63.60;;;;;;4207567;28;20113;-62
2022/02/20 09:18:30;;;;;;;1.73;1.20;;;15.90;63.70;;;;;;4208464;28;20109;-62
2022/02/20 09:20:52;;;;;;;2.42;1.35;;;15.90;63.90;;;;;;4207515;28;20059;-62
2022/02/20 09:23:18;;;;;;;1.63;1.20;;;15.80;63.90;;;;;;4207849;28;20083;-62
2022/02/20 09:25:42;;;;;;;1.63;1.52;;;15.80;64.10;;;;;;4207232;28;20059;-61
2022/02/20 09:28:04;;;;;;;1.30;1.20;;;15.80;64.30;;;;;;4207166;28;20054;-63
2022/02/20 09:30:28;;;;;;;1.38;1.27;;;15.80;64.60;;;;;;4207266;28;20047;-62
2022/02/20 09:32:51;;;;;;;1.10;1.10;;;15.80;64.60;;;;;;4207148;28;20048;-62
2022/02/20 09:35:13;;;;;;;1.75;1.15;;;15.80;64.50;;;;;;4207528;27;20036;-62
2022/02/20 09:37:36;;;;;;;1.20;1.10;;;15.80;64.40;;;;;;4207090;28;20040;-62
2022/02/20 09:39:58;;;;;;;1.40;1.30;;;15.80;64.40;;;;;;4207605;28;20043;-62
2022/02/20 09:42:20;;;;;;;2.25;1.30;;;15.90;64.70;;;;;;4207360;28;20101;-61
2022/02/20 09:44:43;;;;;;;2.38;1.50;;;15.90;64.70;;;;;;4207623;28;20109;-61
2022/02/20 09:47:08;;;;;;;2.22;1.27;;;16.20;64.10;;;;;;4207137;28;20048;-61
2022/02/20 09:49:34;;;;;;;3.22;1.50;;;16.70;62.80;;;;;;4205204;28;20052;-62
2022/02/20 09:51:56;;;;;;;3.72;1.40;;;17.20;61.20;;;;;;4207064;28;20048;-61
2022/02/20 09:54:19;;;;;;;2.75;1.27;;;17.70;59.40;;;;;;4206518;28;20496;-61
2022/02/20 09:56:41;;;;;;;2.95;1.17;;;18.40;57.90;;;;;;4206830;28;20166;-61
2022/02/20 09:59:03;;;;;;;8.32;1.48;;;19.00;56.40;;;;;;4206511;28;20052;-61
2022/02/20 10:01:28;;;;;;;4.05;1.17;;;19.60;54.80;;;;;;4207160;28;20051;-62
2022/02/20 10:03:52;;;;;;;4.07;1.50;;;20.20;53.50;;;;;;4206509;28;20452;-60
2022/02/20 10:06:17;;;;;;;6.75;1.77;;;20.70;52.30;;;;;;4206373;28;20055;-62
2022/02/20 10:08:42;;;;;;;6.78;1.60;;;21.00;51.50;;;;;;4206030;28;20056;-62
2022/02/20 10:11:15;;;;;;;7.63;2.30;;;21.30;50.90;;;;;;4207168;28;20460;-62
2022/02/20 10:13:37;;;;;;;7.10;2.13;;;21.40;50.70;;;;;;4206622;28;20094;-62
2022/02/20 10:16:17;;;;;;;7.13;2.47;;;21.40;50.70;;;;;;4206466;28;20054;-62
2022/02/20 10:18:58;;;;;;;8.98;2.83;;;21.20;51.00;;;;;;4206149;28;20071;-62
2022/02/20 10:21:54;;;;;;;6.53;2.08;;;21.00;51.50;;;;;;4188564;27;20181;-61
2022/02/20 10:24:59;;;;;;;10.60;3.10;;;20.70;52.20;;;;;;4180104;28;20063;-61
2022/02/20 10:28:00;;;;;;;13.52;3.95;;;20.40;53.00;;;;;;4136734;28;20171;-61
2022/02/20 10:30:33;;;;;;;13.98;3.33;;;20.20;53.70;;;;;;4138072;28;20069;-61
2022/02/20 10:33:05;;;;;;;10.32;3.30;;;20.10;54.10;;;;;;4174671;28;20071;-60
2022/02/20 10:35:31;;;;;;;13.45;3.58;;;20.00;54.30;;;;;;4206459;28;20044;-61
2022/02/20 10:37:57;;;;;;;8.30;2.60;;;19.90;54.50;;;;;;4204402;28;20440;-62
2022/02/20 10:40:28;;;;;;;17.27;4.00;;;19.90;54.60;;;;;;4206140;28;20059;-62
2022/02/20 10:42:50;;;;;;;14.02;3.58;;;19.90;54.60;;;;;;4205670;28;20052;-61
2022/02/20 10:45:24;;;;;;;17.58;3.92;;;19.90;54.80;;;;;;4207388;28;20108;-61
2022/02/20 10:47:47;;;;;;;14.55;4.10;;;19.80;54.90;;;;;;4206244;28;20058;-61
2022/02/20 10:50:18;;;;;;;16.85;3.67;;;19.80;55.00;;;;;;4206438;28;20040;-59
2022/02/20 10:52:42;;;;;;;13.73;3.95;;;19.90;55.00;;;;;;4205819;28;20051;-61
2022/02/20 10:55:06;;;;;;;13.32;3.95;;;19.90;55.00;;;;;;4206972;28;20040;-61
2022/02/20 10:57:45;;;;;;;14.82;3.60;;;19.90;55.00;;;;;;4206811;28;20064;-61
2022/02/20 11:00:12;;;;;;;12.07;3.58;;;19.90;54.90;;;;;;4206124;28;20054;-61
2022/02/20 11:02:34;;;;;;;13.77;3.63;;;20.00;55.00;;;;;;4206580;28;20047;-61
2022/02/20 11:04:56;;;;;;;16.00;3.60;;;20.00;55.00;;;;;;4206010;28;20059;-61
2022/02/20 11:07:19;;;;;;;17.75;3.95;;;20.00;54.90;;;;;;4190203;28;20056;-61
2022/02/20 11:09:42;;;;;;;14.65;3.28;;;20.00;54.90;;;;;;4189643;28;20465;-62
2022/02/20 11:12:06;;;;;;;16.92;4.35;;;20.10;54.90;;;;;;4206513;27;20478;-61
2022/02/20 11:14:29;;;;;;;13.48;3.65;;;20.10;54.70;;;;;;4200592;27;20040;-61
2022/02/20 11:16:53;;;;;;;19.35;4.35;;;20.20;54.60;;;;;;4192820;27;20051;-60
2022/02/20 11:19:19;;;;;;;13.80;3.25;;;20.30;54.50;;;;;;4189733;28;20079;-60
2022/02/20 11:21:43;;;;;;;23.30;4.18;;;20.30;54.40;;;;;;4191471;28;20515;-60
2022/02/20 11:24:07;;;;;;;12.73;3.58;;;20.30;54.50;;;;;;4192665;28;20049;-60
2022/02/20 11:26:34;;;;;;;17.05;4.05;;;20.30;54.60;;;;;;4199848;27;20048;-61
2022/02/20 11:28:57;;;;;;;15.18;3.25;;;20.30;55.40;;;;;;4209611;28;20040;-61
2022/02/20 11:31:19;;;;;;;18.23;3.88;;;20.30;54.60;;;;;;4209786;28;20052;-61
2022/02/20 11:33:42;;;;;;;17.80;4.53;;;20.30;54.60;;;;;;4207972;28;20427;-58
2022/02/20 11:36:05;;;;;;;14.90;3.63;;;20.30;55.30;;;;;;4209624;28;20040;-60
2022/02/20 11:38:27;;;;;;;18.35;4.15;;;20.30;54.50;;;;;;4209465;28;20130;-60
2022/02/20 11:40:59;;;;;;;17.60;4.13;;;20.40;54.50;;;;;;4209573;28;20452;-60
2022/02/20 11:43:23;;;;;;;17.48;4.40;;;20.40;54.40;;;;;;4208846;28;20078;-60
2022/02/20 11:46:07;;;;;;;15.98;4.15;;;20.40;54.30;;;;;;4209355;28;20554;-60
2022/02/20 11:48:30;;;;;;;20.38;5.10;;;20.40;54.40;;;;;;4207986;28;20059;-60
2022/02/20 11:50:52;;;;;;;17.75;4.32;;;20.40;54.30;;;;;;4209493;28;20051;-60
2022/02/20 11:53:27;;;;;;;21.42;6.32;;;20.40;54.30;;;;;;4209293;28;20075;-60
2022/02/20 11:56:03;;;;;;;17.50;4.20;;;20.40;54.20;;;;;;4209076;28;20074;-60
2022/02/20 11:58:26;;;;;;;12.27;3.50;;;20.30;54.30;;;;;;4209335;28;20070;-60
2022/02/20 12:01:11;;;;;;;21.17;4.70;;;20.30;54.70;;;;;;4192146;28;20127;-60
2022/02/20 12:03:54;;;;;;;19.65;4.68;;;20.20;54.90;;;;;;4191656;28;20053;-60
2022/02/20 12:06:25;;;;;;;21.10;5.60;;;20.20;54.90;;;;;;4192229;28;20051;-60
2022/02/20 12:08:49;;;;;;;18.55;5.03;;;20.20;54.80;;;;;;4191958;28;20056;-60
2022/02/20 12:11:13;;;;;;;24.90;5.35;;;20.20;54.90;;;;;;4192307;28;20153;-60
2022/02/20 12:13:36;;;;;;;23.30;4.63;;;20.10;55.10;;;;;;4192088;28;20045;-60
2022/02/20 12:16:21;;;;;;;15.68;3.83;;;20.10;55.10;;;;;;4206524;28;20058;-60
2022/02/20 12:19:12;;;;;;;19.98;4.70;;;20.10;55.20;;;;;;4191139;28;20117;-60
2022/02/20 12:22:02;;;;;;;24.50;5.05;;;20.10;55.30;;;;;;4185051;28;20550;-61
2022/02/20 12:24:28;;;;;;;14.60;3.03;;;20.00;55.30;;;;;;4192028;28;20074;-61
2022/02/20 12:26:55;;;;;;;16.75;5.13;;;20.00;55.40;;;;;;4192502;28;20051;-60
2022/02/20 12:29:19;;;;;;;20.35;4.82;;;20.10;55.40;;;;;;4192278;28;20050;-60
2022/02/20 12:32:18;;;;;;;21.95;5.15;;;20.10;55.40;;;;;;4192040;28;20052;-60
2022/02/20 12:34:52;;;;;;;18.40;4.90;;;20.10;55.30;;;;;;4192101;28;20033;-61
2022/02/20 12:37:17;;;;;;;19.27;4.68;;;20.10;55.20;;;;;;4204071;27;20105;-60
2022/02/20 12:39:39;;;;;;;22.25;4.97;;;20.10;55.20;;;;;;4207902;28;20143;-61
2022/02/20 12:42:03;;;;;;;20.85;4.78;;;20.10;55.30;;;;;;4208160;28;20101;-62